createdAt,value
2023-04-02T00:01:23.982Z,31.38
2023-04-02T00:04:04.367Z,31.38
2023-04-02T00:06:40.961Z,31.44
2023-04-02T00:09:18.852Z,31.47
2023-04-02T00:11:51.698Z,31.50
2023-04-02T00:14:36.533Z,31.56
2023-04-02T00:17:07.549Z,31.55
2023-04-02T00:20:08.892Z,31.63
2023-04-02T00:22:45.507Z,31.65
2023-04-02T00:25:16.383Z,31.72
2023-04-02T00:27:47.214Z,31.88
2023-04-02T00:30:18.216Z,32.00
2023-04-02T00:32:49.837Z,32.10
2023-04-02T00:35:28.294Z,32.17
2023-04-02T00:37:59.139Z,32.32
2023-04-02T00:40:32.148Z,32.31
2023-04-02T00:43:04.471Z,32.41
2023-04-02T00:45:38.575Z,32.47
2023-04-02T00:48:33.625Z,32.54
2023-04-02T00:51:59.169Z,32.60
2023-04-02T00:54:34.132Z,32.64
2023-04-02T00:57:04.725Z,32.71
2023-04-02T00:59:38.591Z,32.75
2023-04-02T01:02:19.382Z,32.78
2023-04-02T01:05:18.641Z,32.88
2023-04-02T01:07:58.312Z,32.86
2023-04-02T01:11:04.439Z,32.92
2023-04-02T01:13:41.443Z,32.89
2023-04-02T01:16:26.094Z,32.94
2023-04-02T01:19:46.673Z,33.00
2023-04-02T01:22:24.260Z,33.02
2023-04-02T01:24:59.160Z,33.03
2023-04-02T01:27:53.909Z,33.12
2023-04-02T01:30:30.435Z,33.07
2023-04-02T01:33:04.067Z,33.11
2023-04-02T01:35:38.977Z,33.20
2023-04-02T01:38:23.480Z,33.24
2023-04-02T01:41:22.938Z,33.31
2023-04-02T01:44:13.865Z,33.30
2023-04-02T01:46:45.701Z,33.26
2023-04-02T01:49:22.108Z,33.26
2023-04-02T01:51:57.733Z,33.19
2023-04-02T01:54:31.773Z,33.17
2023-04-02T01:57:02.666Z,33.19
2023-04-02T01:59:34.246Z,33.28
2023-04-02T02:02:14.625Z,33.41
2023-04-02T02:04:46.872Z,33.44
2023-04-02T02:07:21.542Z,33.54
2023-04-02T02:09:58.347Z,33.60
2023-04-02T02:12:29.393Z,33.69
2023-04-02T02:15:03.411Z,33.77
2023-04-02T02:17:35.456Z,33.82
2023-04-02T02:20:12.369Z,33.81
2023-04-02T02:22:50.502Z,33.85
2023-04-02T02:25:27.314Z,33.89
2023-04-02T02:28:29.685Z,33.82
2023-04-02T02:31:13.873Z,33.79
2023-04-02T02:33:48.716Z,33.85
2023-04-02T02:36:50.138Z,33.90
2023-04-02T02:39:37.066Z,33.88
2023-04-02T02:42:25.980Z,33.96
2023-04-02T02:44:58.441Z,34.00
2023-04-02T02:47:36.216Z,34.07
2023-04-02T02:50:11.328Z,34.12
2023-04-02T02:52:48.300Z,34.17
2023-04-02T02:55:45.146Z,34.27
2023-04-02T02:58:31.109Z,34.27
2023-04-02T03:01:24.905Z,34.26
2023-04-02T03:03:57.853Z,34.27
2023-04-02T03:06:29.502Z,34.37
2023-04-02T03:09:38.613Z,34.44
2023-04-02T03:12:23.567Z,34.53
2023-04-02T03:15:16.472Z,34.56
2023-04-02T03:17:55.437Z,34.57
2023-04-02T03:20:50.497Z,34.62
2023-04-02T03:23:31.180Z,34.69
2023-04-02T03:26:54.042Z,34.76
2023-04-02T03:29:28.691Z,34.70
2023-04-02T03:32:09.624Z,34.76
2023-04-02T03:34:54.243Z,34.80
2023-04-02T03:37:33.779Z,34.83
2023-04-02T03:40:17.304Z,34.91
2023-04-02T03:42:50.946Z,34.94
2023-04-02T03:45:25.544Z,35.02
2023-04-02T03:48:12.740Z,35.08
2023-04-02T03:50:50.274Z,35.14
2023-04-02T03:53:26.149Z,35.17
2023-04-02T03:55:57.879Z,35.16
2023-04-02T03:58:34.317Z,35.18
2023-04-02T04:01:35.570Z,35.31
2023-04-02T04:04:15.507Z,35.32
2023-04-02T04:06:48.053Z,35.33
2023-04-02T04:09:37.314Z,35.33
2023-04-02T04:12:23.920Z,35.29
2023-04-02T04:15:10.677Z,35.23
2023-04-02T04:17:52.305Z,35.17
2023-04-02T04:20:34.816Z,35.20
2023-04-02T04:23:30.904Z,35.23
2023-04-02T04:26:12.594Z,35.22
2023-04-02T04:28:48.965Z,35.38
2023-04-02T04:31:39.973Z,35.40
2023-04-02T04:34:43.297Z,35.49
2023-04-02T04:37:34.430Z,35.59
2023-04-02T04:40:26.030Z,35.71
2023-04-02T04:43:07.872Z,35.80
2023-04-02T04:46:02.489Z,35.93
2023-04-02T04:48:40.338Z,35.81
2023-04-02T04:51:22.081Z,35.76
2023-04-02T04:53:56.054Z,35.65
2023-04-02T04:56:31.766Z,35.61
2023-04-02T04:59:36.352Z,35.67
2023-04-02T05:02:20.791Z,35.71
2023-04-02T05:04:53.687Z,35.72
2023-04-02T05:07:39.619Z,35.81
2023-04-02T05:10:32.256Z,35.85
2023-04-02T05:13:09.295Z,35.91
2023-04-02T05:16:01.192Z,36.01
2023-04-02T05:18:54.110Z,36.10
2023-04-02T05:21:36.653Z,36.12
2023-04-02T05:24:29.483Z,36.15
2023-04-02T05:27:06.806Z,36.11
2023-04-02T05:29:40.868Z,36.11
2023-04-02T05:32:18.791Z,36.17
2023-04-02T05:34:52.577Z,36.02
2023-04-02T05:37:26.106Z,36.05
2023-04-02T05:40:07.628Z,36.07
2023-04-02T05:42:38.979Z,36.08
2023-04-02T05:45:33.816Z,36.12
2023-04-02T05:48:20.291Z,36.24
2023-04-02T05:50:55.915Z,36.23
2023-04-02T05:53:42.661Z,36.21
2023-04-02T05:56:45.988Z,36.23
2023-04-02T05:59:36.097Z,36.20
2023-04-02T06:02:09.113Z,36.18
2023-04-02T06:04:58.156Z,36.13
2023-04-02T06:07:47.955Z,36.02
2023-04-02T06:10:26.735Z,35.98
2023-04-02T06:13:05.009Z,35.88
2023-04-02T06:15:42.740Z,35.87
2023-04-02T06:18:21.748Z,35.91
2023-04-02T06:20:55.119Z,35.90
2023-04-02T06:23:45.614Z,35.92
2023-04-02T06:26:41.341Z,35.96
2023-04-02T06:29:40.826Z,35.96
2023-04-02T06:32:20.975Z,35.94
2023-04-02T06:34:52.165Z,35.94
2023-04-02T06:37:37.207Z,35.88
2023-04-02T06:40:41.088Z,35.89
2023-04-02T06:43:47.066Z,35.88
2023-04-02T06:47:26.373Z,35.91
2023-04-02T06:50:03.017Z,35.92
2023-04-02T06:52:46.371Z,35.92
2023-04-02T06:55:35.157Z,35.93
2023-04-02T06:58:11.101Z,35.94
2023-04-02T07:00:47.013Z,35.92
2023-04-02T07:03:29.814Z,35.94
2023-04-02T07:06:04.547Z,35.91
2023-04-02T07:08:37.500Z,35.88
2023-04-02T07:11:08.411Z,35.82
2023-04-02T07:13:38.850Z,35.72
2023-04-02T07:16:16.770Z,35.73
2023-04-02T07:18:48.385Z,35.73
2023-04-02T07:21:19.641Z,35.74
2023-04-02T07:23:53.123Z,35.78
2023-04-02T07:26:28.204Z,35.73
2023-04-02T07:28:59.052Z,35.70
2023-04-02T07:31:30.684Z,35.72
2023-04-02T07:34:02.517Z,35.71
2023-04-02T07:36:35.793Z,35.74
2023-04-02T07:39:07.446Z,35.72
2023-04-02T07:41:53.353Z,35.73
2023-04-02T07:44:24.059Z,35.68
2023-04-02T07:46:54.965Z,35.63
2023-04-02T07:49:26.221Z,35.65
2023-04-02T07:51:57.706Z,35.62
2023-04-02T07:54:29.241Z,35.66
2023-04-02T07:57:00.067Z,35.63
2023-04-02T07:59:30.769Z,35.70
2023-04-02T08:02:01.669Z,35.68
2023-04-02T08:04:32.309Z,35.69
2023-04-02T08:07:03.165Z,35.70
2023-04-02T08:09:34.164Z,35.68
2023-04-02T08:12:05.300Z,35.70
2023-04-02T08:14:36.016Z,35.70
2023-04-02T08:17:06.937Z,35.69
2023-04-02T08:19:48.161Z,35.72
2023-04-02T08:22:25.325Z,35.70
2023-04-02T08:24:55.980Z,35.67
2023-04-02T08:27:27.374Z,35.65
2023-04-02T08:29:58.320Z,35.67
2023-04-02T08:32:30.082Z,35.63
2023-04-02T08:35:00.569Z,35.62
2023-04-02T08:37:31.473Z,35.66
2023-04-02T08:40:04.782Z,35.64
2023-04-02T08:42:41.966Z,35.65
2023-04-02T08:45:39.934Z,35.62
2023-04-02T08:48:14.111Z,35.57
2023-04-02T08:50:45.433Z,35.54
2023-04-02T08:53:22.694Z,35.52
2023-04-02T08:56:09.483Z,35.52
2023-04-02T08:58:54.870Z,35.47
2023-04-02T09:01:28.279Z,35.39
2023-04-02T09:04:00.669Z,35.37
2023-04-02T09:06:32.530Z,35.39
2023-04-02T09:09:13.788Z,35.38
2023-04-02T09:11:48.661Z,35.36
2023-04-02T09:14:35.835Z,35.39
2023-04-02T09:17:17.010Z,35.32
2023-04-02T09:19:55.939Z,35.29
2023-04-02T09:22:28.826Z,35.23
2023-04-02T09:25:01.959Z,35.24
2023-04-02T09:27:35.155Z,35.21
2023-04-02T09:30:34.856Z,35.21
2023-04-02T09:33:10.113Z,35.18
2023-04-02T09:35:52.809Z,35.19
2023-04-02T09:38:32.477Z,35.11
2023-04-02T09:41:20.206Z,35.08
2023-04-02T09:43:51.496Z,35.04
2023-04-02T09:46:27.018Z,35.05
2023-04-02T09:49:04.634Z,35.06
2023-04-02T09:51:37.497Z,35.03
2023-04-02T09:54:17.315Z,35.03
2023-04-02T09:57:06.767Z,35.00
2023-04-02T09:59:38.417Z,34.96
2023-04-02T10:02:30.625Z,35.01
2023-04-02T10:05:06.843Z,34.92
2023-04-02T10:07:47.610Z,34.91
2023-04-02T10:10:21.031Z,34.76
2023-04-02T10:13:07.717Z,34.72
2023-04-02T10:16:05.000Z,34.63
2023-04-02T10:18:53.689Z,34.42
2023-04-02T10:21:38.986Z,34.43
2023-04-02T10:24:17.610Z,34.38
2023-04-02T10:27:00.013Z,34.39
2023-04-02T10:30:06.226Z,34.43
2023-04-02T10:33:01.750Z,34.32
2023-04-02T10:35:49.564Z,34.32
2023-04-02T10:38:31.833Z,34.25
2023-04-02T10:41:24.693Z,34.26
2023-04-02T10:44:16.706Z,34.25
2023-04-02T10:47:11.308Z,34.15
2023-04-02T10:50:20.643Z,34.18
2023-04-02T10:52:59.673Z,34.14
2023-04-02T10:55:33.950Z,34.11
2023-04-02T10:58:09.313Z,34.09
2023-04-02T11:00:42.011Z,34.03
2023-04-02T11:03:20.429Z,34.07
2023-04-02T11:05:57.127Z,34.05
2023-04-02T11:08:41.143Z,34.01
2023-04-02T11:11:22.410Z,33.96
2023-04-02T11:14:05.024Z,34.03
2023-04-02T11:16:37.293Z,33.99
2023-04-02T11:19:17.146Z,33.94
2023-04-02T11:22:27.261Z,33.91
2023-04-02T11:24:59.009Z,33.91
2023-04-02T11:27:31.804Z,33.88
2023-04-02T11:30:21.568Z,33.90
2023-04-02T11:32:52.550Z,33.87
2023-04-02T11:35:37.043Z,33.78
2023-04-02T11:38:12.300Z,33.67
2023-04-02T11:40:45.899Z,33.59
2023-04-02T11:43:35.017Z,33.65
2023-04-02T11:46:17.836Z,33.55
2023-04-02T11:48:48.304Z,33.52
2023-04-02T11:51:24.890Z,33.45
2023-04-02T11:53:59.336Z,33.47
2023-04-02T11:56:47.349Z,33.38
2023-04-02T11:59:50.342Z,33.45
2023-04-02T12:02:50.831Z,33.38
2023-04-02T12:05:28.984Z,33.32
2023-04-02T12:07:59.365Z,33.27
2023-04-02T12:10:33.906Z,33.23
2023-04-02T12:13:04.321Z,33.23
2023-04-02T12:15:40.588Z,33.46
2023-04-02T12:18:24.543Z,33.50
2023-04-02T12:20:57.689Z,33.52
2023-04-02T12:23:32.271Z,33.54
2023-04-02T12:26:09.897Z,33.54
2023-04-02T12:28:43.240Z,33.55
2023-04-02T12:31:17.561Z,33.53
2023-04-02T12:33:48.224Z,33.53
2023-04-02T12:36:22.496Z,33.52
2023-04-02T12:38:58.444Z,33.31
2023-04-02T12:41:32.887Z,33.47
2023-04-02T12:44:07.649Z,33.46
2023-04-02T12:46:39.676Z,33.42
2023-04-02T12:49:27.005Z,33.45
2023-04-02T12:51:58.383Z,33.38
2023-04-02T12:54:37.694Z,33.35
2023-04-02T12:57:32.469Z,33.38
2023-04-02T13:00:22.009Z,33.31
2023-04-02T13:02:55.573Z,33.23
2023-04-02T13:05:43.666Z,33.29
2023-04-02T13:08:31.627Z,33.27
2023-04-02T13:11:04.457Z,33.19
2023-04-02T13:13:39.961Z,33.20
2023-04-02T13:16:22.462Z,33.19
2023-04-02T13:18:53.843Z,33.22
2023-04-02T13:21:28.755Z,33.16
2023-04-02T13:23:59.927Z,33.15
2023-04-02T13:26:31.564Z,33.15
2023-04-02T13:29:10.751Z,33.12
2023-04-02T13:31:41.422Z,33.10
2023-04-02T13:34:12.368Z,33.10
2023-04-02T13:36:42.634Z,33.09
2023-04-02T13:39:14.401Z,33.08
2023-04-02T13:41:59.771Z,33.05
2023-04-02T13:44:35.893Z,33.04
2023-04-02T13:47:06.512Z,33.03
2023-04-02T13:49:45.039Z,33.05
2023-04-02T13:52:18.438Z,33.03
2023-04-02T13:54:51.791Z,33.02
2023-04-02T13:57:22.480Z,33.03
2023-04-02T13:59:53.183Z,32.96
2023-04-02T14:02:26.194Z,32.92
2023-04-02T14:05:30.134Z,33.01
2023-04-02T14:08:13.175Z,32.94
2023-04-02T14:10:53.139Z,32.96
2023-04-02T14:13:38.721Z,32.94
2023-04-02T14:16:20.883Z,32.95
2023-04-02T14:19:07.184Z,33.03
2023-04-02T14:22:02.190Z,33.12
2023-04-02T14:25:12.953Z,33.19
2023-04-02T14:28:24.520Z,33.20
2023-04-02T14:31:00.430Z,33.16
2023-04-02T14:34:09.808Z,33.20
2023-04-02T14:36:58.564Z,33.15
2023-04-02T14:39:38.729Z,33.12
2023-04-02T14:42:19.253Z,33.11
2023-04-02T14:45:08.274Z,33.08
2023-04-02T14:48:02.260Z,33.08
2023-04-02T14:50:39.926Z,33.03
2023-04-02T14:53:40.398Z,33.07
2023-04-02T14:56:13.405Z,33.01
2023-04-02T14:58:52.812Z,33.01
2023-04-02T15:01:29.129Z,32.92
2023-04-02T15:04:14.413Z,33.00
2023-04-02T15:06:49.661Z,32.95
2023-04-02T15:09:30.315Z,33.00
2023-04-02T15:12:26.137Z,32.94
2023-04-02T15:15:15.354Z,32.96
2023-04-02T15:17:46.128Z,32.95
2023-04-02T15:20:18.580Z,32.92
2023-04-02T15:22:59.017Z,32.95
2023-04-02T15:25:50.767Z,32.94
2023-04-02T15:28:24.104Z,32.92
2023-04-02T15:31:01.239Z,32.89
2023-04-02T15:33:55.889Z,32.90
2023-04-02T15:36:36.357Z,32.86
2023-04-02T15:39:24.867Z,32.83
2023-04-02T15:42:20.364Z,32.83
2023-04-02T15:45:09.720Z,32.83
2023-04-02T15:47:49.404Z,32.78
2023-04-02T15:50:39.465Z,32.78
2023-04-02T15:53:23.184Z,32.77
2023-04-02T15:56:16.176Z,32.74
2023-04-02T15:58:52.695Z,32.71
2023-04-02T16:01:32.492Z,32.72
2023-04-02T16:04:22.170Z,32.71
2023-04-02T16:07:49.149Z,32.75
2023-04-02T16:10:40.183Z,32.65
2023-04-02T16:13:30.565Z,32.66
2023-04-02T16:16:06.474Z,32.60
2023-04-02T16:19:04.661Z,32.60
2023-04-02T16:21:40.314Z,32.51
2023-04-02T16:24:14.484Z,32.49
2023-04-02T16:27:01.557Z,32.53
2023-04-02T16:29:47.110Z,32.50
2023-04-02T16:32:24.320Z,32.45
2023-04-02T16:35:01.961Z,32.46
2023-04-02T16:38:21.419Z,32.47
2023-04-02T16:41:11.014Z,32.42
2023-04-02T16:44:07.093Z,32.45
2023-04-02T16:46:58.903Z,32.40
2023-04-02T16:49:53.912Z,32.35
2023-04-02T16:52:31.649Z,32.35
2023-04-02T16:55:14.401Z,32.34
2023-04-02T16:58:09.020Z,32.33
2023-04-02T17:00:47.646Z,32.32
2023-04-02T17:03:42.758Z,32.26
2023-04-02T17:06:37.245Z,32.30
2023-04-02T17:09:27.157Z,32.28
2023-04-02T17:12:12.954Z,32.23
2023-04-02T17:15:00.830Z,32.23
2023-04-02T17:17:31.716Z,32.21
2023-04-02T17:20:11.429Z,32.17
2023-04-02T17:22:41.893Z,32.17
2023-04-02T17:25:20.931Z,32.15
2023-04-02T17:27:55.656Z,32.15
2023-04-02T17:30:48.142Z,32.15
2023-04-02T17:33:20.370Z,32.14
2023-04-02T17:35:56.413Z,32.10
2023-04-02T17:38:37.537Z,32.11
2023-04-02T17:41:19.681Z,32.09
2023-04-02T17:44:12.716Z,32.10
2023-04-02T17:46:46.643Z,32.08
2023-04-02T17:49:38.379Z,32.03
2023-04-02T17:52:38.061Z,32.08
2023-04-02T17:55:11.259Z,32.01
2023-04-02T17:57:51.224Z,32.02
2023-04-02T18:00:27.077Z,31.96
2023-04-02T18:03:02.676Z,31.95
2023-04-02T18:05:52.084Z,31.96
2023-04-02T18:08:26.483Z,31.94
2023-04-02T18:11:35.761Z,31.93
2023-04-02T18:14:19.940Z,31.92
2023-04-02T18:17:08.958Z,31.87
2023-04-02T18:20:21.677Z,31.89
2023-04-02T18:23:13.378Z,31.87
2023-04-02T18:25:57.591Z,31.84
2023-04-02T18:29:03.363Z,31.88
2023-04-02T18:32:05.399Z,31.81
2023-04-02T18:34:45.956Z,31.82
2023-04-02T18:37:34.693Z,31.78
2023-04-02T18:40:22.658Z,31.75
2023-04-02T18:43:24.177Z,31.76
2023-04-02T18:46:15.848Z,31.71
2023-04-02T18:49:20.986Z,31.72
2023-04-02T18:51:56.102Z,31.67
2023-04-02T18:54:34.994Z,31.69
2023-04-02T18:57:19.298Z,31.65
2023-04-02T19:00:05.528Z,31.66
2023-04-02T19:03:08.162Z,31.68
2023-04-02T19:05:46.262Z,31.63
2023-04-02T19:08:24.733Z,31.63
2023-04-02T19:10:59.532Z,31.62
2023-04-02T19:13:30.076Z,31.62
2023-04-02T19:16:18.909Z,31.59
2023-04-02T19:19:01.245Z,31.58
2023-04-02T19:22:01.328Z,31.58
2023-04-02T19:24:37.836Z,31.52
2023-04-02T19:27:39.321Z,31.54
2023-04-02T19:30:49.955Z,31.53
2023-04-02T19:33:42.484Z,31.46
2023-04-02T19:36:19.973Z,31.47
2023-04-02T19:39:05.179Z,31.45
2023-04-02T19:41:49.063Z,31.45
2023-04-02T19:44:19.750Z,31.44
2023-04-02T19:46:52.301Z,31.41
2023-04-02T19:49:34.925Z,31.42
2023-04-02T19:52:06.205Z,31.34
2023-04-02T19:54:38.212Z,31.34
2023-04-02T19:57:08.641Z,31.35
2023-04-02T19:59:39.000Z,31.30
2023-04-02T20:02:11.395Z,31.31
2023-04-02T20:04:43.420Z,31.28
2023-04-02T20:07:13.873Z,31.29
2023-04-02T20:09:44.286Z,31.31
2023-04-02T20:12:15.181Z,31.30
2023-04-02T20:14:45.829Z,31.30
2023-04-02T20:17:16.956Z,31.26
2023-04-02T20:19:47.343Z,31.25
2023-04-02T20:22:20.098Z,31.23
2023-04-02T20:24:51.254Z,31.25
2023-04-02T20:27:21.859Z,31.21
2023-04-02T20:29:52.790Z,31.19
2023-04-02T20:32:54.361Z,31.26
2023-04-02T20:35:26.518Z,31.21
2023-04-02T20:37:57.454Z,31.17
2023-04-02T20:40:28.056Z,31.19
2023-04-02T20:43:07.130Z,31.20
2023-04-02T20:45:38.299Z,31.18
2023-04-02T20:48:08.988Z,31.16
2023-04-02T20:50:39.326Z,31.17
2023-04-02T20:53:10.199Z,31.15
2023-04-02T20:55:40.646Z,31.14
2023-04-02T20:58:10.910Z,31.12
2023-04-02T21:00:43.469Z,31.13
2023-04-02T21:03:14.865Z,31.10
2023-04-02T21:05:49.206Z,31.11
2023-04-02T21:08:22.128Z,31.05
2023-04-02T21:10:53.584Z,31.06
2023-04-02T21:13:24.379Z,31.07
2023-04-02T21:15:55.080Z,31.05
2023-04-02T21:18:25.476Z,31.06
2023-04-02T21:21:05.662Z,31.03
2023-04-02T21:23:36.697Z,31.06
2023-04-02T21:26:11.964Z,31.02
2023-04-02T21:28:43.348Z,31.02
2023-04-02T21:31:27.892Z,31.03
2023-04-02T21:33:59.881Z,31.01
2023-04-02T21:36:36.356Z,30.99
2023-04-02T21:39:09.036Z,30.99
2023-04-02T21:41:44.285Z,30.97
2023-04-02T21:44:20.326Z,30.94
2023-04-02T21:46:53.087Z,30.97
2023-04-02T21:49:27.252Z,30.96
2023-04-02T21:51:58.279Z,30.96
2023-04-02T21:54:28.900Z,30.97
2023-04-02T21:57:01.896Z,30.96
2023-04-02T21:59:32.477Z,30.94
2023-04-02T22:02:03.348Z,30.96
2023-04-02T22:04:34.227Z,30.93
2023-04-02T22:07:04.566Z,30.92
2023-04-02T22:09:43.419Z,30.94
2023-04-02T22:12:14.687Z,30.91
2023-04-02T22:14:44.812Z,30.92
2023-04-02T22:17:15.463Z,30.92
2023-04-02T22:19:46.602Z,30.92
2023-04-02T22:22:17.405Z,30.93
2023-04-02T22:24:48.017Z,30.91
2023-04-02T22:27:18.464Z,30.91
2023-04-02T22:29:49.450Z,30.92
2023-04-02T22:32:20.410Z,30.94
2023-04-02T22:34:50.694Z,30.90
2023-04-02T22:37:21.032Z,30.91
2023-04-02T22:39:52.043Z,30.92
2023-04-02T22:42:22.835Z,30.91
2023-04-02T22:44:56.378Z,30.93
2023-04-02T22:47:27.112Z,30.93
2023-04-02T22:49:57.951Z,30.93
2023-04-02T22:52:28.281Z,30.90
2023-04-02T22:54:58.972Z,30.91
2023-04-02T22:57:29.335Z,30.95
2023-04-02T23:00:00.004Z,30.93
2023-04-02T23:02:30.290Z,30.94
2023-04-02T23:05:01.028Z,30.98
2023-04-02T23:07:32.179Z,30.97
2023-04-02T23:10:04.610Z,30.97
2023-04-02T23:12:41.304Z,30.98
2023-04-02T23:15:12.658Z,31.07
2023-04-02T23:17:43.325Z,31.13
2023-04-02T23:20:14.979Z,31.16
2023-04-02T23:22:45.114Z,31.19
2023-04-02T23:25:19.412Z,31.23
2023-04-02T23:27:51.107Z,31.23
2023-04-02T23:30:22.571Z,31.30
2023-04-02T23:32:56.339Z,31.32
2023-04-02T23:35:27.304Z,31.36
2023-04-02T23:37:57.625Z,31.34
2023-04-02T23:40:28.573Z,31.40
2023-04-02T23:42:59.243Z,31.42
2023-04-02T23:45:33.068Z,31.45
2023-04-02T23:48:04.063Z,31.47
2023-04-02T23:50:34.917Z,31.51
2023-04-02T23:53:05.608Z,31.55
2023-04-02T23:55:37.130Z,31.60
2023-04-02T23:58:07.623Z,31.60
